createdAt,value
2019-01-21T00:00:33.579Z,29.50
2019-01-21T00:03:23.501Z,29.97
2019-01-21T00:05:57.180Z,28.63
2019-01-21T00:08:29.122Z,30.27
2019-01-21T00:11:07.202Z,30.60
2019-01-21T00:13:36.649Z,30.33
2019-01-21T00:16:06.220Z,29.20
2019-01-21T00:18:39.602Z,28.00
2019-01-21T00:21:09.100Z,31.97
2019-01-21T00:23:40.060Z,28.67
2019-01-21T00:26:10.879Z,31.03
2019-01-21T00:28:40.482Z,28.30
2019-01-21T00:31:10.241Z,28.37
2019-01-21T00:33:42.863Z,29.80
2019-01-21T00:36:12.141Z,29.87
2019-01-21T00:38:43.840Z,29.30
2019-01-21T00:41:14.565Z,29.87
2019-01-21T00:43:44.660Z,29.47
2019-01-21T00:46:13.760Z,31.90
2019-01-21T00:48:43.400Z,29.07
2019-01-21T00:51:16.319Z,30.80
2019-01-21T00:53:45.661Z,30.87
2019-01-21T00:56:15.041Z,30.67
2019-01-21T00:58:44.482Z,30.70
2019-01-21T01:01:13.880Z,30.27
2019-01-21T01:03:45.263Z,29.20
2019-01-21T01:06:17.840Z,30.07
2019-01-21T01:08:47.060Z,28.60
2019-01-21T01:11:16.761Z,28.23
2019-01-21T01:13:46.322Z,28.60
2019-01-21T01:16:17.163Z,30.00
2019-01-21T01:18:46.522Z,29.47
2019-01-21T01:21:17.824Z,31.03
2019-01-21T01:23:47.063Z,29.73
2019-01-21T01:26:20.002Z,31.10
2019-01-21T01:28:50.021Z,28.63
2019-01-21T01:31:21.162Z,31.33
2019-01-21T01:33:50.241Z,29.87
2019-01-21T01:36:19.700Z,30.70
2019-01-21T01:38:55.020Z,29.97
2019-01-21T01:41:24.359Z,29.10
2019-01-21T01:43:54.241Z,29.13
2019-01-21T01:46:28.161Z,29.27
2019-01-21T01:49:01.120Z,29.97
2019-01-21T01:51:30.820Z,30.90
2019-01-21T01:54:00.280Z,31.53
2019-01-21T01:56:34.122Z,30.77
2019-01-21T01:59:06.540Z,30.13
2019-01-21T02:01:36.143Z,28.47
2019-01-21T02:04:08.624Z,27.70
2019-01-21T02:06:38.403Z,28.53
2019-01-21T02:09:11.366Z,30.50
2019-01-21T02:11:41.644Z,29.33
2019-01-21T02:14:14.085Z,27.23
2019-01-21T02:16:43.885Z,29.50
2019-01-21T02:19:13.899Z,28.27
2019-01-21T02:21:46.460Z,28.87
2019-01-21T02:24:20.801Z,28.30
2019-01-21T02:26:56.319Z,28.27
2019-01-21T02:29:31.199Z,26.73
2019-01-21T02:32:04.081Z,29.23
2019-01-21T02:34:36.479Z,29.63
2019-01-21T02:37:31.566Z,27.83
2019-01-21T02:40:11.881Z,28.20
2019-01-21T02:43:20.981Z,29.37
2019-01-21T02:45:53.319Z,28.50
2019-01-21T02:48:31.179Z,28.80
2019-01-21T02:51:32.179Z,28.73
2019-01-21T02:54:16.719Z,26.97
2019-01-21T02:56:51.839Z,30.63
2019-01-21T02:59:50.919Z,30.30
2019-01-21T03:02:23.564Z,28.13
2019-01-21T03:05:32.585Z,28.57
2019-01-21T03:08:23.167Z,29.30
2019-01-21T03:11:11.945Z,28.07
2019-01-21T03:13:54.405Z,28.37
2019-01-21T03:16:44.485Z,26.43
2019-01-21T03:19:22.444Z,27.73
2019-01-21T03:22:07.043Z,28.20
2019-01-21T03:25:05.865Z,29.73
2019-01-21T03:27:57.965Z,29.07
2019-01-21T03:30:41.965Z,28.53
2019-01-21T03:33:32.505Z,29.07
2019-01-21T03:36:21.166Z,29.63
2019-01-21T03:39:13.266Z,30.63
2019-01-21T03:42:00.645Z,28.70
2019-01-21T03:44:59.282Z,31.87
2019-01-21T03:47:35.348Z,29.80
2019-01-21T03:50:13.523Z,30.03
2019-01-21T03:52:49.180Z,29.33
2019-01-21T03:55:22.702Z,28.13
2019-01-21T03:58:26.662Z,28.47
2019-01-21T04:01:17.772Z,30.73
2019-01-21T04:03:56.167Z,30.73
2019-01-21T04:06:31.390Z,27.73
2019-01-21T04:09:25.765Z,29.37
2019-01-21T04:12:04.246Z,28.90
2019-01-21T04:14:43.008Z,30.27
2019-01-21T04:17:18.072Z,28.87
2019-01-21T04:20:07.269Z,29.43
2019-01-21T04:22:38.930Z,30.60
2019-01-21T04:25:20.388Z,29.73
2019-01-21T04:27:53.161Z,29.63
2019-01-21T04:30:34.859Z,30.27
2019-01-21T04:33:34.020Z,31.20
2019-01-21T04:36:18.524Z,29.47
2019-01-21T04:38:53.600Z,30.97
2019-01-21T04:41:38.064Z,30.00
2019-01-21T04:44:12.806Z,31.13
2019-01-21T04:47:04.644Z,29.00
2019-01-21T04:49:36.906Z,30.97
2019-01-21T04:52:21.500Z,31.60
2019-01-21T04:54:53.943Z,30.30
2019-01-21T04:57:49.573Z,30.20
2019-01-21T05:00:38.073Z,29.77
2019-01-21T05:03:06.253Z,30.93
2019-01-21T05:05:44.612Z,30.67
2019-01-21T05:08:38.752Z,31.73
2019-01-21T05:11:33.191Z,28.53
2019-01-21T05:14:21.912Z,30.97
2019-01-21T05:16:59.852Z,30.07
2019-01-21T05:19:50.780Z,29.50
2019-01-21T05:22:35.239Z,31.17
2019-01-21T05:25:20.321Z,29.10
2019-01-21T05:28:01.719Z,30.23
2019-01-21T05:30:49.180Z,30.67
2019-01-21T05:33:21.241Z,30.23
2019-01-21T05:36:11.101Z,30.00
2019-01-21T05:38:52.539Z,29.00
2019-01-21T05:41:31.200Z,30.57
2019-01-21T05:44:24.523Z,32.23
2019-01-21T05:47:12.002Z,32.93
2019-01-21T05:49:49.762Z,31.07
2019-01-21T05:52:27.961Z,30.93
2019-01-21T05:55:16.800Z,30.53
2019-01-21T05:58:04.661Z,31.93
2019-01-21T06:00:55.625Z,31.03
2019-01-21T06:03:30.846Z,30.33
2019-01-21T06:06:15.241Z,31.50
2019-01-21T06:08:59.621Z,31.40
2019-01-21T06:11:40.481Z,31.10
2019-01-21T06:14:41.319Z,33.30
2019-01-21T06:17:13.381Z,30.80
2019-01-21T06:19:48.002Z,31.83
2019-01-21T06:22:39.621Z,28.70
2019-01-21T06:25:26.122Z,30.10
2019-01-21T06:28:04.144Z,29.93
2019-01-21T06:30:42.244Z,30.77
2019-01-21T06:36:01.609Z,31.50
2019-01-21T06:38:48.687Z,34.10
2019-01-21T06:41:29.609Z,29.73
2019-01-21T06:44:11.069Z,31.47
2019-01-21T06:47:05.200Z,33.37
2019-01-21T06:49:46.559Z,34.20
2019-01-21T06:52:33.959Z,34.03
2019-01-21T06:55:12.519Z,30.53
2019-01-21T06:57:57.039Z,36.83
2019-01-21T07:01:01.504Z,39.43
2019-01-21T07:03:49.801Z,34.70
2019-01-21T07:06:44.507Z,33.57
2019-01-21T07:09:25.640Z,31.67
2019-01-21T07:12:06.311Z,31.70
2019-01-21T07:14:47.128Z,32.47
2019-01-21T07:17:28.599Z,32.93
2019-01-21T07:20:17.159Z,32.20
2019-01-21T07:23:23.199Z,31.50
2019-01-21T07:26:13.179Z,32.53
2019-01-21T07:28:50.679Z,31.97
2019-01-21T07:31:31.619Z,33.67
2019-01-21T07:34:14.919Z,35.50
2019-01-21T07:36:47.359Z,33.47
2019-01-21T07:39:34.319Z,33.97
2019-01-21T07:42:21.540Z,33.57
2019-01-21T07:45:02.415Z,31.93
2019-01-21T07:47:51.170Z,35.97
2019-01-21T07:50:26.060Z,34.47
2019-01-21T07:53:22.139Z,33.37
2019-01-21T07:56:11.097Z,30.73
2019-01-21T07:58:54.792Z,32.17
2019-01-21T08:01:49.447Z,33.37
2019-01-21T08:04:50.245Z,34.80
2019-01-21T08:07:28.645Z,32.67
2019-01-21T08:10:21.306Z,34.37
2019-01-21T08:15:58.325Z,35.60
2019-01-21T08:18:56.406Z,32.67
2019-01-21T08:21:35.127Z,32.67
2019-01-21T08:24:22.765Z,33.47
2019-01-21T08:27:10.926Z,34.37
2019-01-21T08:29:45.626Z,33.60
2019-01-21T08:32:26.806Z,33.60
2019-01-21T08:35:01.634Z,33.67
2019-01-21T08:37:42.847Z,32.87
2019-01-21T08:40:20.785Z,33.60
2019-01-21T08:42:58.621Z,32.50
2019-01-21T08:45:33.701Z,34.67
2019-01-21T08:48:15.000Z,34.50
2019-01-21T08:50:47.167Z,35.17
2019-01-21T08:53:28.606Z,35.73
2019-01-21T08:56:04.126Z,34.70
2019-01-21T08:58:51.207Z,34.87
2019-01-21T09:01:47.851Z,35.63
2019-01-21T09:04:46.508Z,33.40
2019-01-21T09:07:37.831Z,32.97
2019-01-21T09:10:35.529Z,33.47
2019-01-21T09:13:19.360Z,34.70
2019-01-21T09:15:55.239Z,31.77
2019-01-21T09:18:53.979Z,32.20
2019-01-21T09:21:32.139Z,31.93
2019-01-21T09:24:19.999Z,32.20
2019-01-21T09:26:58.061Z,34.47
2019-01-21T09:29:39.499Z,32.20
2019-01-21T09:32:26.679Z,33.33
2019-01-21T09:35:10.860Z,31.83
2019-01-21T09:37:43.042Z,34.37
2019-01-21T09:40:36.379Z,32.00
2019-01-21T09:45:45.600Z,33.97
2019-01-21T09:48:14.399Z,31.93
2019-01-21T09:50:48.820Z,33.87
2019-01-21T09:53:18.399Z,33.87
2019-01-21T09:55:50.119Z,33.57
2019-01-21T09:58:22.379Z,32.73
2019-01-21T10:00:58.085Z,31.83
2019-01-21T10:03:27.843Z,31.57
2019-01-21T10:06:00.310Z,30.40
2019-01-21T10:08:32.847Z,31.27
2019-01-21T10:11:22.963Z,30.83
2019-01-21T10:14:07.024Z,30.47
2019-01-21T10:16:48.284Z,29.97
2019-01-21T10:19:56.805Z,30.87
2019-01-21T10:22:29.224Z,29.47
2019-01-21T10:25:34.725Z,31.73
2019-01-21T10:28:15.625Z,32.73
2019-01-21T10:31:13.904Z,29.87
2019-01-21T10:34:20.603Z,30.20
2019-01-21T10:37:18.643Z,31.10
2019-01-21T10:39:56.703Z,30.27
2019-01-21T10:42:47.044Z,32.57
2019-01-21T10:45:28.533Z,29.57
2019-01-21T10:48:27.635Z,28.90
2019-01-21T10:51:18.424Z,30.33
2019-01-21T10:53:55.784Z,32.37
2019-01-21T10:56:37.206Z,30.03
2019-01-21T10:59:21.287Z,32.00
2019-01-21T11:02:02.084Z,31.70
2019-01-21T11:04:57.880Z,30.93
2019-01-21T11:07:36.001Z,31.60
2019-01-21T11:10:26.359Z,31.03
2019-01-21T11:15:48.500Z,32.43
2019-01-21T11:18:30.369Z,34.23
2019-01-21T11:21:15.229Z,32.70
2019-01-21T11:24:16.690Z,33.00
2019-01-21T11:26:51.588Z,31.60
2019-01-21T11:29:36.395Z,32.33
2019-01-21T11:32:23.349Z,32.63
2019-01-21T11:35:01.688Z,31.93
2019-01-21T11:37:33.712Z,31.93
2019-01-21T11:40:08.830Z,31.17
2019-01-21T11:42:41.048Z,29.43
2019-01-21T11:45:14.102Z,31.37
2019-01-21T11:47:49.329Z,31.30
2019-01-21T11:50:45.939Z,30.73
2019-01-21T11:53:22.243Z,28.57
2019-01-21T11:56:00.281Z,29.73
2019-01-21T11:58:56.559Z,28.80
2019-01-21T12:01:46.564Z,29.30
2019-01-21T12:04:30.181Z,25.10
2019-01-21T12:07:25.047Z,22.97
2019-01-21T12:10:05.753Z,21.13
2019-01-21T12:12:38.041Z,19.97
2019-01-21T12:15:19.040Z,20.63
2019-01-21T12:18:16.025Z,18.43
2019-01-21T12:20:48.303Z,20.63
2019-01-21T12:26:08.145Z,20.17
2019-01-21T12:28:46.748Z,22.00
2019-01-21T12:31:19.105Z,23.67
2019-01-21T12:34:04.386Z,23.93
2019-01-21T12:36:42.346Z,22.67
2019-01-21T12:39:14.547Z,23.60
2019-01-21T12:41:49.809Z,25.37
2019-01-21T12:44:39.639Z,23.73
2019-01-21T12:47:20.523Z,22.23
2019-01-21T12:49:52.572Z,23.43
2019-01-21T12:52:33.746Z,23.07
2019-01-21T12:55:08.802Z,24.67
2019-01-21T12:57:50.048Z,22.50
2019-01-21T13:00:31.308Z,22.40
2019-01-21T13:03:32.065Z,22.13
2019-01-21T13:06:20.784Z,21.77
2019-01-21T13:09:04.560Z,21.27
2019-01-21T13:11:36.520Z,22.43
2019-01-21T13:14:11.400Z,22.57
2019-01-21T13:16:43.373Z,21.90
2019-01-21T13:19:34.709Z,22.30
2019-01-21T13:22:18.207Z,22.67
2019-01-21T13:24:59.321Z,22.40
2019-01-21T13:27:48.661Z,21.80
2019-01-21T13:30:49.669Z,21.90
2019-01-21T13:33:42.248Z,21.77
2019-01-21T13:36:58.860Z,22.20
2019-01-21T13:39:55.099Z,19.20
2019-01-21T13:42:27.195Z,19.00
2019-01-21T13:45:14.320Z,19.13
2019-01-21T13:47:48.760Z,18.87
2019-01-21T13:50:58.302Z,19.57
2019-01-21T13:53:45.447Z,18.27
2019-01-21T13:56:23.144Z,20.00
2019-01-21T13:59:16.311Z,19.53
2019-01-21T14:01:48.405Z,18.70
2019-01-21T14:04:35.222Z,19.50
2019-01-21T14:07:38.281Z,18.43
2019-01-21T14:10:27.981Z,18.57
2019-01-21T14:13:19.121Z,20.63
2019-01-21T14:16:12.641Z,19.80
2019-01-21T14:18:59.264Z,20.33
2019-01-21T14:21:36.969Z,16.70
2019-01-21T14:24:17.360Z,18.03
2019-01-21T14:27:05.881Z,21.10
2019-01-21T14:29:46.769Z,21.40
2019-01-21T14:32:40.199Z,19.17
2019-01-21T14:35:27.320Z,19.83
2019-01-21T14:38:28.240Z,19.80
2019-01-21T14:41:16.721Z,19.83
2019-01-21T14:44:08.183Z,19.37
2019-01-21T14:47:06.726Z,19.87
2019-01-21T14:49:55.312Z,20.63
2019-01-21T14:52:55.916Z,21.03
2019-01-21T14:55:39.865Z,20.57
2019-01-21T14:58:14.659Z,20.70
2019-01-21T15:00:58.361Z,19.60
2019-01-21T15:03:38.946Z,19.27
2019-01-21T15:06:11.035Z,19.27
2019-01-21T15:08:45.873Z,17.80
2019-01-21T15:11:44.980Z,20.07
2019-01-21T15:14:16.962Z,18.20
2019-01-21T15:16:51.866Z,19.10
2019-01-21T15:19:26.696Z,20.23
2019-01-21T15:22:15.144Z,18.43
2019-01-21T15:25:11.181Z,19.73
2019-01-21T15:27:58.136Z,19.63
2019-01-21T15:30:46.500Z,18.80
2019-01-21T15:33:35.210Z,19.60
2019-01-21T15:36:28.554Z,19.10
2019-01-21T15:39:18.728Z,19.30
2019-01-21T15:42:05.901Z,20.70
2019-01-21T15:44:44.029Z,19.30
2019-01-21T15:47:18.640Z,21.20
2019-01-21T15:49:59.840Z,19.93
2019-01-21T15:52:42.020Z,19.30
2019-01-21T15:55:19.581Z,20.43
2019-01-21T15:58:00.341Z,20.00
2019-01-21T16:00:50.066Z,19.47
2019-01-21T16:05:59.487Z,18.70
2019-01-21T16:08:31.407Z,18.43
2019-01-21T16:11:19.964Z,18.40
2019-01-21T16:13:53.461Z,18.50
2019-01-21T16:16:31.084Z,19.73
2019-01-21T16:19:03.403Z,19.37
2019-01-21T16:22:09.006Z,22.80
2019-01-21T16:24:52.490Z,22.10
2019-01-21T16:27:33.526Z,19.67
2019-01-21T16:30:08.072Z,19.93
2019-01-21T16:32:41.593Z,20.53
2019-01-21T16:35:22.352Z,21.07
2019-01-21T16:37:54.416Z,20.10
2019-01-21T16:40:35.306Z,20.23
2019-01-21T16:43:26.786Z,19.97
2019-01-21T16:45:55.876Z,20.60
2019-01-21T16:48:25.404Z,22.10
2019-01-21T16:50:54.464Z,22.43
2019-01-21T16:53:23.365Z,24.03
2019-01-21T16:55:52.420Z,25.07
2019-01-21T16:58:21.700Z,26.60
2019-01-21T17:00:52.229Z,28.10
2019-01-21T17:03:21.292Z,29.93
2019-01-21T17:05:53.124Z,29.37
2019-01-21T17:08:22.089Z,28.40
2019-01-21T17:10:58.660Z,28.97
2019-01-21T17:13:27.704Z,27.67
2019-01-21T17:15:56.762Z,23.73
2019-01-21T17:18:25.880Z,21.43
2019-01-21T17:20:55.310Z,20.60
2019-01-21T17:23:24.344Z,22.33
2019-01-21T17:25:53.425Z,21.30
2019-01-21T17:28:25.363Z,21.53
2019-01-21T17:30:54.973Z,20.87
2019-01-21T17:33:25.861Z,20.73
2019-01-21T17:35:55.002Z,20.20
2019-01-21T17:38:34.614Z,20.07
2019-01-21T17:41:03.884Z,21.40
2019-01-21T17:43:33.261Z,20.37
2019-01-21T17:46:02.426Z,22.10
2019-01-21T17:48:31.948Z,21.17
2019-01-21T17:51:04.070Z,21.80
2019-01-21T17:53:33.445Z,23.97
2019-01-21T17:56:02.588Z,24.23
2019-01-21T17:58:31.947Z,25.60
2019-01-21T18:01:03.626Z,25.23
2019-01-21T18:03:32.768Z,25.87
2019-01-21T18:06:03.440Z,26.47
2019-01-21T18:08:32.661Z,25.20
2019-01-21T18:11:07.020Z,25.33
2019-01-21T18:13:35.961Z,27.73
2019-01-21T18:16:05.062Z,28.73
2019-01-21T18:18:34.300Z,28.57
2019-01-21T18:21:03.261Z,26.60
2019-01-21T18:23:32.302Z,27.87
2019-01-21T18:26:01.802Z,28.83
2019-01-21T18:28:30.803Z,28.60
2019-01-21T18:30:59.915Z,27.60
2019-01-21T18:33:29.024Z,26.77
2019-01-21T18:35:58.092Z,27.10
2019-01-21T18:38:27.243Z,27.23
2019-01-21T18:40:56.530Z,27.37
2019-01-21T18:43:25.412Z,26.53
2019-01-21T18:45:54.457Z,25.50
2019-01-21T18:48:23.942Z,26.87
2019-01-21T18:50:53.329Z,26.53
2019-01-21T18:53:22.586Z,26.53
2019-01-21T18:55:52.708Z,26.60
2019-01-21T18:58:26.138Z,27.13
2019-01-21T19:00:56.261Z,28.93
2019-01-21T19:03:30.418Z,26.60
2019-01-21T19:05:59.887Z,25.83
2019-01-21T19:08:34.245Z,26.83
2019-01-21T19:11:05.117Z,25.43
2019-01-21T19:13:38.047Z,25.53
2019-01-21T19:16:08.957Z,25.73
2019-01-21T19:18:38.856Z,25.03
2019-01-21T19:21:09.319Z,25.40
2019-01-21T19:23:38.864Z,25.13
2019-01-21T19:26:13.683Z,24.20
2019-01-21T19:28:43.869Z,26.13
2019-01-21T19:31:13.306Z,25.73
2019-01-21T19:33:42.710Z,25.40
2019-01-21T19:36:12.208Z,25.37
2019-01-21T19:38:42.165Z,24.17
2019-01-21T19:41:12.328Z,24.30
2019-01-21T19:43:42.212Z,24.23
2019-01-21T19:46:11.592Z,25.47
2019-01-21T19:48:41.103Z,24.73
2019-01-21T19:51:10.927Z,24.17
2019-01-21T19:53:40.721Z,24.00
2019-01-21T19:56:10.568Z,25.53
2019-01-21T19:58:40.644Z,24.87
2019-01-21T20:01:10.294Z,26.70
2019-01-21T20:03:39.508Z,26.83
2019-01-21T20:06:09.285Z,26.97
2019-01-21T20:08:38.778Z,27.73
2019-01-21T20:11:08.996Z,34.93
2019-01-21T20:13:38.969Z,33.00
2019-01-21T20:16:08.378Z,27.00
2019-01-21T20:18:37.443Z,27.10
2019-01-21T20:21:07.007Z,28.37
2019-01-21T20:23:38.843Z,27.47
2019-01-21T20:26:08.266Z,27.10
2019-01-21T20:28:37.549Z,27.40
2019-01-21T20:31:06.706Z,29.13
2019-01-21T20:33:35.840Z,28.43
2019-01-21T20:36:06.229Z,29.60
2019-01-21T20:38:40.901Z,28.37
2019-01-21T20:41:17.090Z,27.87
2019-01-21T20:43:49.570Z,26.93
2019-01-21T20:46:18.884Z,28.17
2019-01-21T20:48:48.008Z,27.53
2019-01-21T20:51:17.529Z,29.80
2019-01-21T20:53:49.663Z,27.70
2019-01-21T20:56:22.398Z,32.87
2019-01-21T20:58:51.845Z,30.07
2019-01-21T21:01:21.510Z,30.00
2019-01-21T21:03:51.169Z,30.50
2019-01-21T21:06:20.426Z,29.57
2019-01-21T21:08:49.784Z,28.43
2019-01-21T21:11:18.688Z,28.50
2019-01-21T21:13:47.781Z,28.87
2019-01-21T21:16:18.019Z,27.30
2019-01-21T21:18:47.098Z,30.33
2019-01-21T21:21:16.123Z,30.50
2019-01-21T21:23:45.132Z,31.07
2019-01-21T21:26:14.116Z,30.90
2019-01-21T21:28:43.846Z,29.90
2019-01-21T21:31:13.028Z,28.93
2019-01-21T21:33:43.167Z,31.93
2019-01-21T21:36:12.487Z,28.73
2019-01-21T21:38:42.260Z,32.33
2019-01-21T21:41:11.563Z,29.87
2019-01-21T21:43:41.286Z,30.30
2019-01-21T21:46:10.489Z,30.50
2019-01-21T21:48:40.003Z,30.67
2019-01-21T21:51:09.243Z,28.93
2019-01-21T21:53:38.825Z,28.10
2019-01-21T21:56:08.549Z,31.87
2019-01-21T21:58:37.957Z,32.03
2019-01-21T22:01:07.204Z,29.00
2019-01-21T22:03:36.743Z,30.03
2019-01-21T22:06:06.001Z,28.17
2019-01-21T22:08:35.190Z,28.53
2019-01-21T22:11:04.984Z,28.53
2019-01-21T22:13:34.111Z,28.13
2019-01-21T22:16:03.606Z,29.93
2019-01-21T22:18:35.716Z,26.57
2019-01-21T22:21:05.057Z,28.43
2019-01-21T22:23:34.161Z,25.40
2019-01-21T22:26:04.148Z,27.07
2019-01-21T22:28:33.606Z,28.77
2019-01-21T22:31:04.124Z,28.10
2019-01-21T22:33:35.245Z,27.57
2019-01-21T22:36:09.303Z,27.30
2019-01-21T22:38:38.081Z,26.40
2019-01-21T22:41:12.220Z,28.37
2019-01-21T22:43:41.441Z,29.13
2019-01-21T22:46:10.881Z,26.97
2019-01-21T22:48:51.900Z,28.53
2019-01-21T22:51:22.243Z,28.33
2019-01-21T22:53:51.444Z,27.53
2019-01-21T22:56:21.100Z,29.03
2019-01-21T22:58:54.702Z,26.97
2019-01-21T23:01:25.445Z,27.33
2019-01-21T23:03:55.203Z,28.43
2019-01-21T23:06:24.664Z,28.40
2019-01-21T23:08:54.104Z,29.33
2019-01-21T23:11:27.041Z,27.23
2019-01-21T23:13:56.542Z,28.03
2019-01-21T23:16:25.920Z,30.40
2019-01-21T23:18:55.324Z,27.27
2019-01-21T23:21:24.900Z,29.10
2019-01-21T23:23:55.963Z,29.17
2019-01-21T23:26:25.159Z,32.23
2019-01-21T23:28:54.760Z,31.33
2019-01-21T23:31:25.403Z,32.30
2019-01-21T23:33:55.500Z,32.70
2019-01-21T23:36:25.243Z,32.03
2019-01-21T23:38:54.682Z,27.50
2019-01-21T23:41:24.162Z,29.37
2019-01-21T23:43:53.579Z,29.23
2019-01-21T23:46:23.480Z,29.90
2019-01-21T23:48:53.122Z,29.90
2019-01-21T23:51:22.540Z,29.93
2019-01-21T23:53:52.660Z,28.60
2019-01-21T23:56:21.781Z,31.77
2019-01-21T23:58:52.820Z,30.10
